地図

経路データ

SID SEASON NUMBER BASIN SUBBASIN NAME ISO_TIME NATURE LAT LON WMO_WIND WMO_PRES WMO_AGENCY TRACK_TYPE DIST2LAND LANDFALL IFLAG USA_AGENCY USA_ATCF_ID USA_LAT USA_LON USA_RECORD USA_STATUS USA_WIND USA_PRES USA_SSHS USA_R34_NE USA_R34_SE USA_R34_SW USA_R34_NW USA_R50_NE USA_R50_SE USA_R50_SW USA_R50_NW USA_R64_NE USA_R64_SE USA_R64_SW USA_R64_NW USA_POCI USA_ROCI USA_RMW USA_EYE TOKYO_LAT TOKYO_LON TOKYO_GRADE TOKYO_WIND TOKYO_PRES TOKYO_R50_DIR TOKYO_R50_LONG TOKYO_R50_SHORT TOKYO_R30_DIR TOKYO_R30_LONG TOKYO_R30_SHORT TOKYO_LAND CMA_LAT CMA_LON CMA_CAT CMA_WIND CMA_PRES HKO_LAT HKO_LON HKO_CAT HKO_WIND HKO_PRES NEWDELHI_LAT NEWDELHI_LON NEWDELHI_GRADE NEWDELHI_WIND NEWDELHI_PRES NEWDELHI_CI NEWDELHI_DP NEWDELHI_POCI REUNION_LAT REUNION_LON REUNION_TYPE REUNION_WIND REUNION_PRES REUNION_TNUM REUNION_CI REUNION_RMW REUNION_R34_NE REUNION_R34_SE REUNION_R34_SW REUNION_R34_NW REUNION_R50_NE REUNION_R50_SE REUNION_R50_SW REUNION_R50_NW REUNION_R64_NE REUNION_R64_SE REUNION_R64_SW REUNION_R64_NW BOM_LAT BOM_LON BOM_TYPE BOM_WIND BOM_PRES BOM_TNUM BOM_CI BOM_RMW BOM_R34_NE BOM_R34_SE BOM_R34_SW BOM_R34_NW BOM_R50_NE BOM_R50_SE BOM_R50_SW BOM_R50_NW BOM_R64_NE BOM_R64_SE BOM_R64_SW BOM_R64_NW BOM_ROCI BOM_POCI BOM_EYE BOM_POS_METHOD BOM_PRES_METHOD NADI_LAT NADI_LON NADI_CAT NADI_WIND NADI_PRES WELLINGTON_LAT WELLINGTON_LON WELLINGTON_WIND WELLINGTON_PRES DS824_LAT DS824_LON DS824_STAGE DS824_WIND DS824_PRES TD9636_LAT TD9636_LON TD9636_STAGE TD9636_WIND TD9636_PRES TD9635_LAT TD9635_LON TD9635_WIND TD9635_PRES TD9635_ROCI NEUMANN_LAT NEUMANN_LON NEUMANN_CLASS NEUMANN_WIND NEUMANN_PRES MLC_LAT MLC_LON MLC_CLASS MLC_WIND MLC_PRES USA_GUST BOM_GUST BOM_GUST_PER REUNION_GUST REUNION_GUST_PER USA_SEAHGT USA_SEARAD_NE USA_SEARAD_SE USA_SEARAD_SW USA_SEARAD_NW STORM_SPEED STORM_DIR
1933226N14295 1933 41 NA CS NOT_NAMED 1933-08-14 00:00:00 TS 14.2000 -65.3000 30 hurdat_atl main 410 403 O_____________ hurdat_atl AL071933 14.2000 -65.3000 TD 30 -1 14 278
1933226N14295 1933 41 NA CS NOT_NAMED 1933-08-14 03:00:00 TS 14.3005 -66.0124 main 403 392 P_____________ AL071933 14.3005 -66.0124 TD 30 -1 14 278
1933226N14295 1933 41 NA CS NOT_NAMED 1933-08-14 06:00:00 TS 14.4000 -66.7000 30 hurdat_atl main 392 380 O_____________ hurdat_atl AL071933 14.4000 -66.7000 TD 30 -1 13 279
1933226N14295 1933 41 NA CS NOT_NAMED 1933-08-14 09:00:00 TS 14.4997 -67.3501 main 378 347 P_____________ AL071933 14.4997 -67.3501 TD 30 -1 13 279
1933226N14295 1933 41 NA CS NOT_NAMED 1933-08-14 12:00:00 TS 14.6000 -68.0000 30 hurdat_atl main 347 318 O_____________ hurdat_atl AL071933 14.6000 -68.0000 TD 30 -1 13 278
1933226N14295 1933 41 NA CS NOT_NAMED 1933-08-14 15:00:00 TS 14.6924 -68.6926 main 318 303 P_____________ AL071933 14.6924 -68.6926 TD 30 -1 14 278
1933226N14295 1933 41 NA CS NOT_NAMED 1933-08-14 18:00:00 TS 14.8000 -69.4000 30 hurdat_atl main 307 304 O_____________ hurdat_atl AL071933 14.8000 -69.4000 TD 30 -1 14 281
1933226N14295 1933 41 NA CS NOT_NAMED 1933-08-14 21:00:00 TS 14.9498 -70.1000 main 313 287 P_____________ AL071933 14.9498 -70.1000 TD 32 -1 14 283
1933226N14295 1933 41 NA CS NOT_NAMED 1933-08-15 00:00:00 TS 15.1000 -70.8000 35 hurdat_atl main 287 268 O_____________ hurdat_atl AL071933 15.1000 -70.8000 TS 35 0 14 280
1933226N14295 1933 41 NA CS NOT_NAMED 1933-08-15 03:00:00 TS 15.1998 -71.5002 main 268 262 P_____________ AL071933 15.1998 -71.5002 TS 35 0 14 278
1933226N14295 1933 41 NA CS NOT_NAMED 1933-08-15 06:00:00 TS 15.3000 -72.2000 35 hurdat_atl main 271 271 O_____________ hurdat_atl AL071933 15.3000 -72.2000 TS 35 0 14 280
1933226N14295 1933 41 NA CS NOT_NAMED 1933-08-15 09:00:00 TS 15.4274 -72.9077 main 293 269 P_____________ AL071933 15.4274 -72.9077 TS 35 0 14 283
1933226N14295 1933 41 NA CS NOT_NAMED 1933-08-15 12:00:00 TS 15.6000 -73.6000 35 hurdat_atl main 269 246 O_____________ hurdat_atl AL071933 15.6000 -73.6000 TS 35 0 14 287
1933226N14295 1933 41 NA CS NOT_NAMED 1933-08-15 15:00:00 TS 15.8347 -74.2575 main 249 232 P_____________ AL071933 15.8347 -74.2575 TS 35 0 13 292
1933226N14295 1933 41 NA CS NOT_NAMED 1933-08-15 18:00:00 TS 16.1000 -74.9000 35 hurdat_atl main 237 183 O_____________ hurdat_atl AL071933 16.1000 -74.9000 TS 35 0 14 293
1933226N14295 1933 41 NA CS NOT_NAMED 1933-08-15 21:00:00 TS 16.3649 -75.5575 main 179 145 P_____________ AL071933 16.3649 -75.5575 TS 35 0 13 292
1933226N14295 1933 41 NA CS NOT_NAMED 1933-08-16 00:00:00 TS 16.6000 -76.2000 35 hurdat_atl main 145 109 O_____________ hurdat_atl AL071933 16.6000 -76.2000 TS 35 0 13 288
1933226N14295 1933 41 NA CS NOT_NAMED 1933-08-16 03:00:00 TS 16.7648 -76.8152 main 109 89 P_____________ AL071933 16.7648 -76.8152 TS 35 0 12 285
1933226N14295 1933 41 NA CS NOT_NAMED 1933-08-16 06:00:00 TS 16.9000 -77.4000 35 hurdat_atl main 92 89 O_____________ hurdat_atl AL071933 16.9000 -77.4000 TS 35 0 11 283
1933226N14295 1933 41 NA CS NOT_NAMED 1933-08-16 09:00:00 TS 17.0197 -77.9504 main 105 99 P_____________ AL071933 17.0197 -77.9504 TS 35 0 11 286
1933226N14295 1933 41 NA CS NOT_NAMED 1933-08-16 12:00:00 TS 17.2000 -78.5000 35 hurdat_atl main 112 100 O_____________ hurdat_atl AL071933 17.2000 -78.5000 TS 35 0 12 293
1933226N14295 1933 41 NA CS NOT_NAMED 1933-08-16 15:00:00 TS 17.4900 -79.1002 main 107 107 P_____________ AL071933 17.4900 -79.1002 TS 35 0 13 301
1933226N14295 1933 41 NA CS NOT_NAMED 1933-08-16 18:00:00 TS 17.9000 -79.7000 35 hurdat_atl main 141 141 O_____________ hurdat_atl AL071933 17.9000 -79.7000 TS 35 0 14 310
1933226N14295 1933 41 NA CS NOT_NAMED 1933-08-16 21:00:00 TS 18.4122 -80.2429 main 191 191 P_____________ AL071933 18.4122 -80.2429 TS 35 0 15 317
1933226N14295 1933 41 NA CS NOT_NAMED 1933-08-17 00:00:00 TS 19.0000 -80.8000 35 hurdat_atl main 268 248 O_____________ hurdat_atl AL071933 19.0000 -80.8000 TS 35 0 17 316
1933226N14295 1933 41 NA CS NOT_NAMED 1933-08-17 03:00:00 TS 19.5926 -81.4575 main 242 152 P_____________ AL071933 19.5926 -81.4575 TS 35 0 17 314
1933226N14295 1933 41 NA CS NOT_NAMED 1933-08-17 06:00:00 TS 20.2000 -82.1000 35 hurdat_atl main 152 70 O_____________ hurdat_atl AL071933 20.2000 -82.1000 TS 35 0 17 318
1933226N14295 1933 41 NA CS NOT_NAMED 1933-08-17 09:00:00 TS 20.8448 -82.6524 main 67 15 P_____________ AL071933 20.8448 -82.6524 TS 35 0 15 322
1933226N14295 1933 41 NA CS NOT_NAMED 1933-08-17 12:00:00 TS 21.4000 -83.1000 35 hurdat_atl main 15 10 O_____________ hurdat_atl AL071933 21.4000 -83.1000 TS 35 0 12 321
1933226N14295 1933 41 NA CS NOT_NAMED 1933-08-17 15:00:00 TS 21.7598 -83.4530 main 41 22 P_____________ AL071933 21.7598 -83.4530 TS 35 0 8 317
1933226N14295 1933 41 NA CS NOT_NAMED 1933-08-17 18:00:00 TS 22.0000 -83.7000 35 hurdat_atl main 22 0 O_____________ hurdat_atl AL071933 22.0000 -83.7000 TS 35 0 6 320
1933226N14295 1933 41 NA NA NOT_NAMED 1933-08-17 21:00:00 TS 22.2224 -83.8727 main 0 0 P_____________ AL071933 22.2224 -83.8727 TS 32 -1 5 325
1933226N14295 1933 41 NA NA NOT_NAMED 1933-08-18 00:00:00 TS 22.4000 -84.0000 30 hurdat_atl main 0 0 O_____________ hurdat_atl AL071933 22.4000 -84.0000 TD 30 -1 4 322
1933226N14295 1933 41 NA NA NOT_NAMED 1933-08-18 03:00:00 TS 22.5575 -84.1575 main 10 10 P_____________ AL071933 22.5575 -84.1575 TD 32 -1 4 317
1933226N14295 1933 41 NA GM NOT_NAMED 1933-08-18 06:00:00 TS 22.7000 -84.3000 35 hurdat_atl main 23 23 O_____________ hurdat_atl AL071933 22.7000 -84.3000 TS 35 0 4 319
1933226N14295 1933 41 NA GM NOT_NAMED 1933-08-18 09:00:00 TS 22.8350 -84.4225 main 38 38 P_____________ AL071933 22.8350 -84.4225 TS 37 0 4 329
1933226N14295 1933 41 NA GM NOT_NAMED 1933-08-18 12:00:00 TS 23.0000 -84.5000 40 hurdat_atl main 60 60 O_____________ hurdat_atl AL071933 23.0000 -84.5000 TS 40 0 4 348
1933226N14295 1933 41 NA GM NOT_NAMED 1933-08-18 15:00:00 TS 23.2350 -84.5151 main 75 75 P_____________ AL071933 23.2350 -84.5151 TS 40 0 5 2
1933226N14295 1933 41 NA GM NOT_NAMED 1933-08-18 18:00:00 TS 23.5000 -84.5000 40 hurdat_atl main 103 103 O_____________ hurdat_atl AL071933 23.5000 -84.5000 TS 40 0 5 0
1933226N14295 1933 41 NA GM NOT_NAMED 1933-08-18 21:00:00 TS 23.7500 -84.5000 main 133 122 P_____________ AL071933 23.7500 -84.5000 TS 37 0 5 2
1933226N14295 1933 41 NA GM NOT_NAMED 1933-08-19 00:00:00 TS 24.0000 -84.5000 35 hurdat_atl main 154 154 O_____________ hurdat_atl AL071933 24.0000 -84.5000 TS 35 0 5 2
1933226N14295 1933 41 NA GM NOT_NAMED 1933-08-19 03:00:00 TS 24.2500 -84.5000 main 185 185 P_____________ AL071933 24.2500 -84.5000 TS 32 -1 5 2
1933226N14295 1933 41 NA GM NOT_NAMED 1933-08-19 06:00:00 TS 24.5000 -84.5000 30 hurdat_atl main 206 206 O_____________ hurdat_atl AL071933 24.5000 -84.5000 TD 30 -1 5 358
1933226N14295 1933 41 NA GM NOT_NAMED 1933-08-19 09:00:00 TS 24.7500 -84.5075 main 237 227 P_____________ AL071933 24.7500 -84.5075 TD 30 -1 5 2
1933226N14295 1933 41 NA GM NOT_NAMED 1933-08-19 12:00:00 TS 25.0000 -84.5000 30 hurdat_atl main 258 258 O_____________ hurdat_atl AL071933 25.0000 -84.5000 TD 30 -1 5 5
1933226N14295 1933 41 NA GM NOT_NAMED 1933-08-19 15:00:00 TS 25.2500 -84.4575 main 276 254 P_____________ AL071933 25.2500 -84.4575 TD 30 -1 5 10
1933226N14295 1933 41 NA GM NOT_NAMED 1933-08-19 18:00:00 TS 25.5000 -84.4000 30 hurdat_atl main 254 242 O_____________ hurdat_atl AL071933 25.5000 -84.4000 TD 30 -1 5 11
1933226N14295 1933 41 NA GM NOT_NAMED 1933-08-19 21:00:00 TS 25.7500 -84.3500 main 228 218 P_____________ AL071933 25.7500 -84.3500 TD 27 -1 5 10
1933226N14295 1933 41 NA GM NOT_NAMED 1933-08-20 00:00:00 TS 26.0000 -84.3000 25 hurdat_atl main 218 208 O_____________ hurdat_atl AL071933 26.0000 -84.3000 TD 25 -1 5 9
1933226N14295 1933 41 NA GM NOT_NAMED 1933-08-20 03:00:00 TS 26.2500 -84.2574 main 208 181 P_____________ AL071933 26.2500 -84.2574 TD 25 -1 5 10
1933226N14295 1933 41 NA GM NOT_NAMED 1933-08-20 06:00:00 TS 26.5000 -84.2000 25 hurdat_atl main 181 158 O_____________ hurdat_atl AL071933 26.5000 -84.2000 TD 25 -1 5 15
1933226N14295 1933 41 NA GM NOT_NAMED 1933-08-20 09:00:00 TS 26.7725 -84.1001 main 158 142 P_____________ AL071933 26.7725 -84.1001 TD 25 -1 5 20
1933226N14295 1933 41 NA GM NOT_NAMED 1933-08-20 12:00:00 TS 27.0000 -84.0000 25 hurdat_atl main 142 130 O_____________ hurdat_atl AL071933 27.0000 -84.0000 TD 25 -1 4 22
1933226N14295 1933 41 NA GM NOT_NAMED 1933-08-20 15:00:00 TS 27.1300 -83.9424 main 130 125 P_____________ AL071933 27.1300 -83.9424 TD 25 -1 2 25
1933226N14295 1933 41 NA GM NOT_NAMED 1933-08-20 18:00:00 TS 27.2000 -83.9000 25 hurdat_atl main 125 119 O_____________ hurdat_atl AL071933 27.2000 -83.9000 TD 25 -1 2 31
1933226N14295 1933 41 NA GM NOT_NAMED 1933-08-20 21:00:00 TS 27.2650 -83.8500 main 111 111 P_____________ AL071933 27.2650 -83.8500 TD 25 -1 1 40
1933226N14295 1933 41 NA GM NOT_NAMED 1933-08-21 00:00:00 TS 27.3000 -83.8000 25 hurdat_atl main 111 111 O_____________ hurdat_atl AL071933 27.3000 -83.8000 TD 25 -1 1 61
1933226N14295 1933 41 NA GM NOT_NAMED 1933-08-21 03:00:00 TS 27.3075 -83.7575 main 111 103 P_____________ AL071933 27.3075 -83.7575 TD 25 -1 1 90
1933226N14295 1933 41 NA GM NOT_NAMED 1933-08-21 06:00:00 TS 27.3000 -83.7000 25 hurdat_atl main 103 96 O_____________ hurdat_atl AL071933 27.3000 -83.7000 TD 25 -1 1 94
1933226N14295 1933 41 NA GM NOT_NAMED 1933-08-21 09:00:00 TS 27.2975 -83.6100 main 96 88 P_____________ AL071933 27.2975 -83.6100 TD 25 -1 2 90
1933226N14295 1933 41 NA GM NOT_NAMED 1933-08-21 12:00:00 TS 27.3000 -83.5000 25 hurdat_atl main 88 O_____________ hurdat_atl AL071933 27.3000 -83.5000 TD 25 -1 2 89

IBTrACS Databaseについて

本データベースは、米国NOAAが公開する1842年以降の世界の熱帯低気圧のベストトラックデータアーカイブInternational Best Track Archive for Climate Stewardship (IBTrACS)を、ウェブで閲覧しやすい形式に変換したものです。

最終更新日:2021-12-03